Terminal Aerodrome Forecast
Issued by NWS

Home | Current Version | Previous Version | Text Only | Print | Product List | Glossary On
Versions: 1 2 3 4 5 6 7 8 9 10 11 12 13
000
FTUS45 KCYS 271139
TAFLAR
TAF
KLAR 271139Z 2712/2812 16007KT P6SM BKN200
     FM271800 12014G24KT P6SM VCTS BKN080CB
     FM280000 06010KT P6SM SCT120=

USA.gov is the U.S. government's official web portal to all federal, state and local government web resources and services.